sim
Sign-in with your pilot id or email,
or register
Callsign
Passwort

Schedule Details

Flight Number: OEF9007
Departure: Kolkata International Airport (VECC) at 10:20
Arrival: Mumbai Chhatrapati Shivaji International Airport (VABB) at 12:50

Weather Information
Getting current METAR information for VECC 092230Z 00000KT 2600 HZ SCT020 17/13 Q1013 NOSIG
Getting current METAR information for VABB 092230Z 00000KT 4000 HZ NSC 26/21 Q1012 BECMG 3000 HZ

Schedule Frequency

Route Map